createdAt,value
2023-01-23T00:01:19.054Z,3.9926719201824197
2023-01-23T00:04:17.662Z,4.012581131613115
2023-01-23T00:07:16.894Z,4.050472868667657
2023-01-23T00:11:18.839Z,4.151303500309586
2023-01-23T00:14:17.910Z,4.196902103018601
2023-01-23T00:17:16.749Z,4.214884656868617
2023-01-23T00:21:19.385Z,4.225160403526479
2023-01-23T00:24:17.043Z,4.281034796353561
2023-01-23T00:27:17.090Z,4.307366418698893
2023-01-23T00:31:19.629Z,4.368378743753783
2023-01-23T00:34:16.773Z,4.370947684656494
2023-01-23T00:37:16.962Z,4.376085566680194
2023-01-23T00:41:16.609Z,4.38828803765291
2023-01-23T00:44:17.382Z,4.417830868911642
2023-01-23T00:47:16.663Z,4.462787369724628
2023-01-23T00:51:17.221Z,4.469851964735426
2023-01-23T00:54:17.143Z,4.449942652932895
2023-01-23T00:57:17.005Z,4.4608606620899085
2023-01-23T01:01:16.630Z,4.432602288149428
2023-01-23T01:04:16.515Z,4.4608606620899085
2023-01-23T01:07:16.457Z,4.4993948225604985
2023-01-23T01:11:16.711Z,4.552700438198462
2023-01-23T01:14:16.875Z,4.537928999401993
2023-01-23T01:17:16.609Z,4.548204782657922
2023-01-23T01:21:17.413Z,4.580958849555555
2023-01-23T01:24:16.590Z,4.547562546170321
2023-01-23T01:27:16.424Z,4.569398589299908
2023-01-23T01:31:17.125Z,4.608575032796944
2023-01-23T01:34:16.755Z,4.609217269716555
2023-01-23T01:37:16.853Z,4.604079374486991
2023-01-23T01:41:17.066Z,4.631053327689097
2023-01-23T01:44:18.311Z,4.658027288912945
2023-01-23T01:47:16.690Z,4.654173865389839
2023-01-23T01:51:21.991Z,4.641329121495164
2023-01-23T01:54:25.374Z,4.624630957151476
2023-01-23T01:57:21.298Z,4.658669526182711
2023-01-23T02:01:17.047Z,4.690781395469093
2023-01-23T02:04:17.103Z,4.683074545803538
2023-01-23T02:07:23.164Z,4.700414958471901
2023-01-23T02:11:18.603Z,4.664449661815252
2023-01-23T02:14:17.328Z,4.66637637377462
2023-01-23T02:17:16.918Z,4.710048522497891
2023-01-23T02:21:24.898Z,4.749867264660134
2023-01-23T02:24:25.348Z,4.692065870477018
2023-01-23T02:27:16.257Z,4.688212445507816
2023-01-23T02:31:16.875Z,4.652889390918517
2023-01-23T02:34:16.863Z,4.6349067502299475
2023-01-23T02:37:18.073Z,4.613712928281165
2023-01-23T02:41:20.034Z,4.6201352980457155
2023-01-23T02:44:19.880Z,4.6342645131284375
2023-01-23T02:47:16.264Z,4.607290558971362
2023-01-23T02:51:18.981Z,4.622704246078865
2023-01-23T02:54:17.120Z,4.6779366463902985
2023-01-23T02:57:16.572Z,4.625273194184774
2023-01-23T03:01:16.263Z,4.631053327689097
2023-01-23T03:04:16.467Z,4.617566350085326
2023-01-23T03:07:16.468Z,4.649678204819793
2023-01-23T03:11:18.007Z,4.679221121216324
2023-01-23T03:14:18.841Z,4.699130483345743
2023-01-23T03:17:16.858Z,4.681147833489467
2023-01-23T03:21:16.491Z,4.697846008237775
2023-01-23T03:24:17.921Z,4.6349067502299475
2023-01-23T03:27:16.564Z,4.658669526182711
2023-01-23T03:31:16.541Z,4.686285733084605
2023-01-23T03:34:18.223Z,4.709406284864326
2023-01-23T03:37:17.591Z,4.6740832220213635
2023-01-23T03:41:31.893Z,4.755005168147909
2023-01-23T03:44:19.570Z,4.77106111842304
2023-01-23T03:47:16.734Z,4.792254977138145
2023-01-23T03:51:16.308Z,4.825009132165815
2023-01-23T03:54:16.731Z,4.8288625629466875
2023-01-23T03:57:16.863Z,4.814733317550508
2023-01-23T04:01:16.409Z,4.862258969905179
2023-01-23T04:04:16.657Z,4.87125031234109
2023-01-23T04:07:16.711Z,4.850698673797251
2023-01-23T04:11:16.349Z,4.859690015087199
2023-01-23T04:14:16.733Z,4.892444194466589
2023-01-23T04:17:16.842Z,4.899508822942243
2023-01-23T04:21:15.998Z,4.8975821060306775
2023-01-23T04:24:16.944Z,4.922629429073368
2023-01-23T04:27:16.142Z,4.885379566541178
2023-01-23T04:31:16.257Z,4.960521546310337
2023-01-23T04:34:16.550Z,4.93740093052038
2023-01-23T04:37:17.375Z,4.964374982848312
2023-01-23T04:41:20.359Z,4.991991282827894
2023-01-23T04:44:25.196Z,4.988137845116671
2023-01-23T04:47:16.737Z,4.996486960364564
2023-01-23T04:51:15.938Z,4.981073209737952
2023-01-23T04:54:16.973Z,5.035663588329863
2023-01-23T04:57:16.148Z,4.985568886733472
2023-01-23T05:01:16.796Z,4.989422324335555
2023-01-23T05:04:16.332Z,5.032452388679667
2023-01-23T05:07:16.178Z,5.05236182834351
2023-01-23T05:11:16.470Z,5.044012707952424
2023-01-23T05:14:16.549Z,5.0613531896241515
2023-01-23T05:17:16.419Z,5.031167908851421
2023-01-23T05:21:16.934Z,4.996486960364564
2023-01-23T05:24:16.974Z,4.979146491093798
2023-01-23T05:27:16.677Z,4.979146491093798
2023-01-23T05:31:16.581Z,5.012542953385946
2023-01-23T05:34:17.134Z,4.985568886733472
2023-01-23T05:37:16.646Z,4.970155137962228
2023-01-23T05:41:16.666Z,5.025387749849415
2023-01-23T05:44:17.319Z,4.975293053928271
2023-01-23T05:47:16.729Z,4.991349043197988
2023-01-23T05:51:17.628Z,4.952814673725515
2023-01-23T05:54:16.828Z,4.94510780179553
2023-01-23T05:57:17.004Z,4.959237067500726
2023-01-23T06:01:16.543Z,4.9656594617306835
2023-01-23T06:11:16.142Z,4.928409581527012
2023-01-23T06:14:16.399Z,4.8834528499297445
2023-01-23T06:17:16.600Z,4.865470163529972
2023-01-23T06:21:18.489Z,4.853909867012772
2023-01-23T06:24:17.168Z,4.847487480695418
2023-01-23T06:27:17.115Z,4.803815265797311
2023-01-23T06:31:15.922Z,4.796750644774965
2023-01-23T06:34:16.192Z,4.785832595186366
2023-01-23T06:37:15.973Z,4.780052451818574
2023-01-23T06:41:18.894Z,4.697846008237775
2023-01-23T06:44:16.466Z,4.697846008237775
2023-01-23T06:47:16.888Z,4.704910621556701
2023-01-23T06:51:16.919Z,4.636833461561764
2023-01-23T06:54:16.671Z,4.64582478165139
2023-01-23T06:57:16.573Z,4.659954000735889
2023-01-23T07:01:17.178Z,4.678578883801038
2023-01-23T07:11:16.524Z,4.622704246078865
2023-01-23T07:14:16.720Z,4.578389902704748
2023-01-23T07:17:16.712Z,4.573894245890915
2023-01-23T07:21:16.258Z,4.56682964277652
2023-01-23T07:24:16.677Z,4.556553857410563
2023-01-23T07:27:16.659Z,4.570040825942124
2023-01-23T07:31:16.870Z,4.537928999401993
2023-01-23T07:34:16.463Z,4.574536482564963
2023-01-23T07:37:16.451Z,4.510312837670154
2023-01-23T07:41:16.727Z,4.5090283652361
2023-01-23T07:44:20.689Z,4.541782417986542
2023-01-23T07:47:17.252Z,4.464071841503847
2023-01-23T07:51:15.770Z,4.477558796283847
2023-01-23T07:54:16.125Z,4.420399811214975
2023-01-23T07:57:16.077Z,4.433244523823032
2023-01-23T08:01:16.811Z,4.421042046802176
2023-01-23T08:04:16.631Z,4.419115340054214
2023-01-23T08:07:16.527Z,4.430033345500488
2023-01-23T08:11:16.043Z,4.4056283939644345
2023-01-23T08:14:16.404Z,4.365809802923832
2023-01-23T08:17:16.238Z,4.349111689302663
2023-01-23T08:21:15.883Z,4.343973808806913
2023-01-23T08:24:16.557Z,4.3189266455578945
2023-01-23T08:27:16.296Z,4.2547031816525305
2023-01-23T08:31:16.658Z,4.215526891000627
2023-01-23T08:34:17.073Z,4.142954462859871
2023-01-23T08:37:17.059Z,4.1654326423598835
2023-01-23T08:41:16.593Z,4.107631620614848
2023-01-23T08:44:17.081Z,4.025425786468259
2023-01-23T08:47:17.131Z,3.9881762923996575
2023-01-23T08:51:16.633Z,3.893768160434502
2023-01-23T08:54:17.200Z,3.920099670352647
2023-01-23T08:57:17.120Z,3.859729878453436
2023-01-23T09:01:19.597Z,3.735779261455991
2023-01-23T09:04:17.884Z,3.7299991850042717
2023-01-23T09:07:17.106Z,3.679262974179528
2023-01-23T09:11:17.171Z,3.610544354137164
2023-01-23T09:14:16.249Z,3.6439403125146783
2023-01-23T09:17:16.554Z,3.635591321767515
2023-01-23T09:21:17.083Z,3.5777906376723876
2023-01-23T09:24:17.159Z,3.5527436860036685
2023-01-23T09:27:17.686Z,3.5713683417133324
2023-01-23T09:31:16.453Z,3.5206322196234394
2023-01-23T09:34:17.397Z,3.4955852837390013
2023-01-23T09:37:17.258Z,3.4923741386130134
2023-01-23T09:41:19.429Z,3.4230134316403564
2023-01-23T09:44:22.077Z,3.487236306647901
2023-01-23T09:47:24.983Z,3.4326468599924738
2023-01-23T09:51:22.864Z,3.407599948405186
2023-01-23T09:54:28.147Z,3.421728974604048
2023-01-23T09:57:20.993Z,3.411453318968415
2023-01-23T10:01:16.123Z,3.3774152179904378
2023-01-23T10:04:19.228Z,3.4210867460927146
2023-01-23T10:07:36.453Z,3.3947553810434328
2023-01-23T10:11:26.795Z,3.3703507080674173
2023-01-23T10:14:36.838Z,3.383195271973091
2023-01-23T10:17:25.257Z,3.401177664496936
2023-01-23T10:21:26.226Z,3.3697084799198818
2023-01-23T10:24:40.070Z,3.358790602107547
2023-01-23T10:27:20.519Z,3.3517260936351705
2023-01-23T10:31:34.184Z,3.421728974604048
2023-01-23T10:34:24.554Z,3.466684981697836
2023-01-23T10:37:22.902Z,3.49044745159199
2023-01-23T10:41:23.099Z,3.553385915447234
2023-01-23T10:44:19.197Z,3.595773068776998
2023-01-23T10:47:23.421Z,3.582286245114301
2023-01-23T10:51:26.258Z,3.635591321767515
2023-01-23T10:54:31.783Z,3.6715562104612216
2023-01-23T10:57:22.847Z,3.7055944218245713
2023-01-23T11:01:25.776Z,3.760184032757479
2023-01-23T11:04:20.935Z,3.7967912020219954
2023-01-23T11:07:20.363Z,3.821195989739863
2023-01-23T11:11:21.776Z,3.9258797589188363
2023-01-23T11:14:20.624Z,3.9554224395652455
2023-01-23T11:17:20.534Z,3.9618447627181923
2023-01-23T11:21:22.411Z,4.036343744525311
2023-01-23T11:24:30.623Z,4.076804424078728
2023-01-23T11:27:23.943Z,4.1191918220170916
2023-01-23T11:31:20.431Z,4.195617635022882
2023-01-23T11:34:20.855Z,4.1917642311448615
2023-01-23T11:37:20.425Z,4.248923072131584
2023-01-23T11:41:16.136Z,4.268190105300528
2023-01-23T11:44:18.651Z,4.29516395861283
2023-01-23T11:48:18.357Z,4.373516625631964
2023-01-23T11:51:21.389Z,4.418473104480654
2023-01-23T11:54:37.304Z,4.507101656619125
2023-01-23T11:57:31.269Z,4.537928999401993
2023-01-23T12:01:27.474Z,4.593161348090507
2023-01-23T12:04:39.177Z,4.64389807012858
2023-01-23T12:07:19.272Z,4.674725459404817
2023-01-23T12:11:19.084Z,4.7524362163676415
2023-01-23T12:14:23.392Z,4.789043786105412
2023-01-23T12:17:26.617Z,4.842349571968953
2023-01-23T12:21:18.875Z,4.917491516090467
2023-01-23T12:24:24.246Z,4.9823576888567915
2023-01-23T12:27:28.137Z,4.995202481045635
2023-01-23T12:31:31.901Z,5.029241189143159
2023-01-23T12:34:33.149Z,5.084473837009955
2023-01-23T12:37:33.820Z,5.1191548191390215
2023-01-23T12:41:30.378Z,5.206499573624842
2023-01-23T12:44:25.832Z,5.273292677925292
2023-01-23T12:47:23.918Z,5.3593530963648845
2023-01-23T12:51:21.425Z,5.449267053596941
2023-01-23T12:54:24.126Z,5.509637903465864
2023-01-23T12:57:59.007Z,5.634875432926128
2023-01-23T13:01:33.641Z,5.733138846334714
2023-01-23T13:04:30.458Z,5.829475629488388
2023-01-23T13:07:28.038Z,5.934803962824754
2023-01-23T13:12:00.293Z,6.087016465503621
2023-01-23T13:14:22.040Z,6.2122547921587286
2023-01-23T13:17:57.096Z,6.327217305767408
2023-01-23T13:22:28.434Z,6.408782976410384
2023-01-23T13:25:14.042Z,6.471723465310151
2023-01-23T13:27:37.791Z,6.597604574131492
2023-01-23T13:31:48.453Z,6.71192532432624
2023-01-23T13:34:35.746Z,6.834595503044329
2023-01-23T13:41:31.440Z,7.166640745770655
2023-01-23T13:44:24.887Z,7.257841005867613
2023-01-23T14:21:20.888Z,7.311790498667051
2023-01-23T14:24:23.416Z,7.291238307150434
2023-01-23T14:27:22.012Z,7.289311539434493
2023-01-23T14:31:22.588Z,7.269401608766293
2023-01-23T14:34:19.039Z,7.24114235983734
2023-01-23T14:37:16.531Z,7.185266143550689
2023-01-23T14:41:20.754Z,7.230866271500508
2023-01-23T14:44:20.304Z,7.271328376059318
2023-01-23T14:47:24.564Z,7.211598609006705
2023-01-23T14:51:20.951Z,7.214167630436077
2023-01-23T14:54:22.470Z,7.380511922868027
2023-01-23T14:57:19.561Z,7.455013712594519
2023-01-23T15:01:16.406Z,7.512816867468428
2023-01-23T15:04:21.123Z,7.52887330591484
2023-01-23T15:07:17.180Z,7.578969412134848
2023-01-23T15:11:23.694Z,7.688153329244324
2023-01-23T15:14:27.418Z,7.703567539893356
2023-01-23T15:17:19.881Z,7.700356245792136
2023-01-23T15:21:26.215Z,7.705494316408658
2023-01-23T15:24:24.915Z,7.756875038580984
2023-01-23T15:27:24.685Z,7.716412717435105
2023-01-23T15:31:25.737Z,7.749810187556522
2023-01-23T15:34:21.356Z,7.736322746219594
2023-01-23T15:37:22.088Z,7.736965005285401
2023-01-23T15:41:23.822Z,7.699713986985534
2023-01-23T15:44:19.275Z,7.667601052453483
2023-01-23T15:47:16.633Z,7.688795587969071
2023-01-23T15:51:16.030Z,7.684942035688801
2023-01-23T15:54:22.233Z,7.639341679469453
2023-01-23T15:57:16.529Z,7.605944250020639
2023-01-23T16:01:17.057Z,7.5552058711196874
2023-01-23T16:04:17.967Z,7.514743639931931
2023-01-23T16:07:23.185Z,7.466574340622538
2023-01-23T16:11:16.650Z,7.425469892105684
2023-01-23T16:14:18.026Z,7.376016127169805
2023-01-23T16:17:17.348Z,7.3773006402037025
2023-01-23T16:21:18.799Z,7.297018610543819
2023-01-23T16:24:19.232Z,7.1955422267215905
2023-01-23T16:27:19.137Z,7.209671842982425
2023-01-23T16:31:16.977Z,7.070944796791082
2023-01-23T16:34:16.941Z,7.0202067171457205
2023-01-23T16:37:18.167Z,6.995158814873139
2023-01-23T16:41:16.951Z,6.8846912258304656
2023-01-23T16:44:18.446Z,6.89689403428938
2023-01-23T16:47:17.268Z,6.803767379696728
2023-01-23T16:51:20.220Z,6.689446513750591
2023-01-23T16:54:19.573Z,6.63870864749997
2023-01-23T16:57:19.393Z,6.609165092883723
2023-01-23T17:01:20.720Z,6.505120477155378
2023-01-23T17:04:20.006Z,6.4588784640284755
2023-01-23T17:07:18.598Z,6.39336898578631
2023-01-23T17:11:20.497Z,6.34969602657593
2023-01-23T17:14:22.375Z,6.392084486685872
2023-01-23T17:17:25.982Z,6.377954997781581
2023-01-23T17:21:20.017Z,6.2559276851942744
2023-01-23T17:24:17.328Z,6.278406388335862
2023-01-23T17:27:16.335Z,6.280975383335317
2023-01-23T17:41:17.146Z,6.134542784490622
2023-01-23T17:44:17.175Z,6.126835812152422
2023-01-23T17:47:17.718Z,6.070318035014497
2023-01-23T17:51:18.872Z,6.039490171418583
2023-01-23T17:54:18.900Z,6.0542618547508935
2023-01-23T17:57:16.650Z,5.996459629335095
2023-01-23T18:01:21.328Z,5.991963902235511
2023-01-23T18:04:18.680Z,5.968843023528825
2023-01-23T18:07:17.565Z,6.010589058813002
2023-01-23T18:11:19.051Z,5.935446209134898
2023-01-23T18:14:30.259Z,5.924528022480899
2023-01-23T18:17:28.547Z,5.956640339920796
2023-01-23T18:21:19.941Z,5.988110422041791
2023-01-23T18:24:23.791Z,6.011873552511043
2023-01-23T18:27:21.618Z,6.0054510842027415
2023-01-23T18:31:25.891Z,6.024718490491887
2023-01-23T18:34:29.796Z,6.031783207156695
2023-01-23T18:37:26.045Z,6.087016465503621
2023-01-23T18:41:21.838Z,6.076098260605159
2023-01-23T18:44:23.416Z,6.138396270905287
2023-01-23T18:47:17.013Z,6.123624573871439
2023-01-23T18:51:28.395Z,6.135827279943987
2023-01-23T18:54:24.601Z,6.157663705434243
2023-01-23T18:57:36.133Z,6.206474557891488
2023-01-23T19:01:23.040Z,6.21418153699633
2023-01-23T19:04:17.347Z,6.173719904001428
2023-01-23T19:07:19.310Z,6.1981253312668745
2023-01-23T19:11:27.112Z,6.189133857299839
2023-01-23T19:14:42.110Z,6.203263316791071
2023-01-23T19:17:31.415Z,6.160232697013998
2023-01-23T19:21:18.940Z,6.169224168116125
2023-01-23T19:24:19.215Z,6.1788578881431935
2023-01-23T19:27:20.936Z,6.153167970344748
2023-01-23T19:31:21.106Z,6.1544524660618665
2023-01-23T19:34:16.824Z,6.0542618547508935
2023-01-23T19:37:17.286Z,6.0240762435496436
2023-01-23T19:51:19.153Z,6.10692613664296
2023-01-23T19:54:17.104Z,6.065822304254198
2023-01-23T19:57:16.902Z,6.0131580462272725
2023-01-23T20:01:32.973Z,6.018938268175407
2023-01-23T20:04:18.953Z,5.925812514960216
2023-01-23T20:07:16.997Z,5.8821397808679645
2023-01-23T20:11:17.062Z,5.905902883574891
2023-01-23T20:14:17.371Z,5.921316791362187
2023-01-23T20:17:17.426Z,5.888562240445117
2023-01-23T20:21:18.715Z,5.93223497762965
2023-01-23T20:24:17.362Z,5.925170268718285
2023-01-23T20:27:17.023Z,5.870579354775055
2023-01-23T20:31:16.906Z,5.832044611773108
2023-01-23T20:34:16.927Z,5.857092192862183
2023-01-23T20:37:17.058Z,5.779380489479172
2023-01-23T20:41:18.826Z,5.761397625455084
2023-01-23T20:44:16.972Z,5.727358642599211
2023-01-23T20:47:18.007Z,5.732496601457024
2023-01-23T20:51:17.082Z,5.7639666058116745
2023-01-23T20:54:16.878Z,5.778738244274064
2023-01-23T20:57:17.672Z,5.695246406331717
2023-01-23T21:01:19.086Z,5.654785004821406
2023-01-23T21:04:18.404Z,5.647078073246758
2023-01-23T21:07:20.021Z,5.631664212061969
2023-01-23T21:11:19.483Z,5.59377181445052
2023-01-23T21:14:17.461Z,5.604689961291387
2023-01-23T21:17:16.858Z,5.566155331248683
2023-01-23T21:21:21.566Z,5.488443877126338
2023-01-23T21:24:18.345Z,5.460827425993284
2023-01-23T21:27:20.961Z,5.451193782227347
2023-01-23T21:31:18.127Z,5.383116062111003
2023-01-23T21:34:16.135Z,5.34201255772241
2023-01-23T21:37:16.355Z,5.295771137549673
2023-01-23T21:41:16.530Z,5.29191768693272
2023-01-23T21:44:16.613Z,5.26173232943047
2023-01-23T21:47:16.645Z,5.198150439045639
2023-01-23T21:51:18.533Z,5.214206467764688
2023-01-23T21:54:16.559Z,5.233473705979213
2023-01-23T21:57:16.477Z,5.166680631000872
2023-01-23T22:01:48.767Z,5.111447933075487
2023-01-23T22:04:19.627Z,4.995202481045635
2023-01-23T22:07:16.542Z,5.051719588286142
2023-01-23T22:11:15.966Z,5.00098263812406
2023-01-23T22:14:17.970Z,4.9637327434139475
2023-01-23T22:17:16.410Z,4.958594828102742
2023-01-23T22:21:16.654Z,4.87959941682966
2023-01-23T22:24:16.698Z,4.801246312634612
2023-01-23T22:27:16.814Z,4.891159716621042
2023-01-23T22:31:17.528Z,4.867396879759417
2023-01-23T22:34:16.257Z,4.804457504099355
2023-01-23T22:37:16.512Z,4.836569424999562
2023-01-23T22:41:16.226Z,4.778125737444498
2023-01-23T22:44:16.608Z,4.760785309919538
2023-01-23T22:47:16.648Z,4.771703356493163
2023-01-23T22:51:18.947Z,4.721608800679678
2023-01-23T22:54:17.243Z,4.755005168147909
2023-01-23T22:57:17.050Z,4.676009934185368
2023-01-23T23:01:19.794Z,4.654816102632322
2023-01-23T23:04:17.343Z,4.654173865389839
2023-01-23T23:07:17.474Z,4.5167352001132715
2023-01-23T23:11:19.928Z,4.493614697446264
2023-01-23T23:14:16.951Z,4.478843268272248
2023-01-23T23:17:16.455Z,4.409481806928307
2023-01-23T23:21:19.675Z,4.383150154937994
2023-01-23T23:24:16.687Z,4.367736508539474
2023-01-23T23:27:16.538Z,4.312504297120995
2023-01-23T23:31:16.135Z,4.306724183916595
2023-01-23T23:34:16.548Z,4.273327981503462
2023-01-23T23:37:16.380Z,4.239289557081884
2023-01-23T23:41:17.279Z,4.214242422741154
2023-01-23T23:44:16.118Z,4.228371574595803
2023-01-23T23:47:16.131Z,4.281034796353561
2023-01-23T23:51:18.433Z,4.204608911374907
2023-01-23T23:54:16.982Z,4.099282587185098
2023-01-23T23:57:16.890Z,4.085795688652797
